Time;durP1;ratioP1;P1;durP2;ratioP2;P2;SDS_P1;SDS_P2;PMS_P1;PMS_P2;Temp;Humidity;BMP_temperature;BMP_pressure;BME280_temperature;BME280_humidity;BME280_pressure;Samples;Min_cycle;Max_cycle;Signal;HPM_P1;HPM_P2
2021/08/16 00:00:14;;;;;;;11.90;7.35;;;;;;;19.18;67.37;99509.25;5051418;28;20552;-72
2021/08/16 00:02:41;;;;;;;10.07;6.95;;;;;;;19.15;67.48;99512.31;5050875;28;20488;-73
2021/08/16 00:05:09;;;;;;;10.00;8.27;;;;;;;19.09;67.70;99497.81;5049857;28;20041;-72
2021/08/16 00:07:37;;;;;;;10.73;7.45;;;;;;;19.07;67.72;99507.06;5051378;28;20048;-72
2021/08/16 00:10:05;;;;;;;11.10;7.82;;;;;;;19.06;67.83;99502.72;5049961;28;20432;-74
2021/08/16 00:12:32;;;;;;;10.13;7.60;;;;;;;19.08;67.92;99511.38;5050380;28;20057;-74
2021/08/16 00:14:59;;;;;;;11.55;8.65;;;;;;;19.08;68.07;99506.03;5048438;28;20049;-73
2021/08/16 00:17:26;;;;;;;11.30;8.40;;;;;;;19.10;68.04;99499.50;5047530;28;20064;-73
2021/08/16 00:19:53;;;;;;;10.80;7.32;;;;;;;19.09;67.95;99488.97;5047573;28;20075;-74
2021/08/16 00:22:19;;;;;;;12.50;8.57;;;;;;;19.02;68.19;99485.38;5047876;28;20071;-77
2021/08/16 00:24:49;;;;;;;11.13;8.15;;;;;;;18.96;68.19;99494.97;5047855;28;20049;-77
2021/08/16 00:27:16;;;;;;;13.18;8.80;;;;;;;18.96;68.43;99491.44;5047107;28;20471;-74
2021/08/16 00:29:43;;;;;;;10.75;8.52;;;;;;;18.97;68.32;99490.44;5045201;28;20056;-72
2021/08/16 00:32:10;;;;;;;10.52;8.95;;;;;;;19.01;68.23;99486.38;5051846;28;20489;-74
2021/08/16 00:34:37;;;;;;;12.13;8.60;;;;;;;19.02;68.09;99485.38;5047467;28;20065;-71
2021/08/16 00:37:04;;;;;;;9.82;7.30;;;;;;;19.04;67.95;99477.97;5047470;28;20044;-73
2021/08/16 00:39:31;;;;;;;9.90;7.60;;;;;;;19.03;67.86;99481.66;5046305;28;20053;-73
2021/08/16 00:42:00;;;;;;;11.55;7.75;;;;;;;18.99;67.50;99485.72;5047157;28;20056;-73
2021/08/16 00:44:27;;;;;;;10.45;7.55;;;;;;;18.95;67.44;99484.44;5047152;28;20055;-73
2021/08/16 00:46:54;;;;;;;11.55;8.40;;;;;;;18.89;67.68;99486.00;5047093;28;20053;-72
2021/08/16 00:49:21;;;;;;;13.85;7.95;;;;;;;18.87;67.57;99482.66;5047819;28;20053;-73
2021/08/16 00:51:48;;;;;;;14.73;8.40;;;;;;;18.82;67.61;99477.06;5046552;28;20156;-73
2021/08/16 00:54:15;;;;;;;13.15;9.18;;;;;;;18.78;68.29;99478.38;5047163;28;20041;-72
2021/08/16 00:56:43;;;;;;;10.10;8.95;;;;;;;18.80;68.32;99485.25;5047570;28;20053;-70
2021/08/16 00:59:13;;;;;;;11.95;8.00;;;;;;;18.84;68.49;99467.00;5045399;28;20083;-74
2021/08/16 01:01:41;;;;;;;14.23;9.88;;;;;;;18.82;68.63;99472.53;5046015;28;20068;-72
2021/08/16 01:04:08;;;;;;;11.95;8.60;;;;;;;18.87;68.76;99471.97;5048202;28;20051;-74
2021/08/16 01:06:35;;;;;;;12.27;8.40;;;;;;;18.90;68.73;99466.25;5047276;28;20053;-74
2021/08/16 01:09:02;;;;;;;15.35;9.65;;;;;;;18.89;68.63;99456.59;5047442;28;20174;-74
2021/08/16 01:11:29;;;;;;;10.98;8.50;;;;;;;18.89;68.74;99453.91;5048015;28;20053;-74
2021/08/16 01:13:56;;;;;;;12.20;9.25;;;;;;;18.88;68.66;99450.38;5046724;28;20045;-75
2021/08/16 01:16:24;;;;;;;13.48;8.65;;;;;;;18.90;68.73;99444.84;5046815;28;20049;-75
2021/08/16 01:18:51;;;;;;;13.63;8.52;;;;;;;18.92;68.68;99448.16;5049140;28;20045;-76
2021/08/16 01:21:19;;;;;;;10.90;8.32;;;;;;;18.93;68.51;99439.13;5049305;28;20052;-75
2021/08/16 01:23:47;;;;;;;12.45;8.63;;;;;;;18.94;68.32;99430.06;5047064;28;20049;-76
2021/08/16 01:26:15;;;;;;;14.25;7.63;;;;;;;18.94;68.35;99431.94;5046572;28;20049;-76
2021/08/16 01:28:43;;;;;;;10.00;7.72;;;;;;;18.94;68.40;99429.25;5046058;28;20056;-79
2021/08/16 01:31:11;;;;;;;11.90;8.85;;;;;;;18.95;68.11;99428.25;5047075;28;20048;-75
2021/08/16 01:33:39;;;;;;;13.70;8.98;;;;;;;18.95;68.24;99429.06;5047364;28;20423;-75
2021/08/16 01:36:06;;;;;;;10.02;8.10;;;;;;;18.93;68.53;99427.63;5046701;28;20094;-76
2021/08/16 01:38:36;;;;;;;11.65;7.68;;;;;;;18.91;68.62;99417.91;5047222;28;20037;-76
2021/08/16 01:41:04;;;;;;;12.07;8.15;;;;;;;18.95;68.33;99417.53;5047132;28;20069;-77
2021/08/16 01:43:31;;;;;;;11.02;8.60;;;;;;;18.95;68.24;99404.16;5046191;28;20485;-79
2021/08/16 01:46:00;;;;;;;12.48;8.05;;;;;;;18.99;68.26;99416.16;5046359;28;20048;-74
2021/08/16 01:48:27;;;;;;;14.70;7.63;;;;;;;19.02;68.24;99402.41;5046804;28;20049;-76
2021/08/16 01:50:55;;;;;;;11.95;8.75;;;;;;;19.05;67.98;99407.38;5047049;28;20052;-74
2021/08/16 01:53:21;;;;;;;11.93;7.05;;;;;;;19.08;67.90;99397.13;5047157;28;20064;-77
2021/08/16 01:55:49;;;;;;;10.73;6.65;;;;;;;19.13;67.80;99396.56;5046549;28;20136;-75
2021/08/16 01:58:15;;;;;;;10.30;7.60;;;;;;;19.20;67.65;99393.97;5044521;28;20041;-75
2021/08/16 02:00:42;;;;;;;11.63;8.07;;;;;;;19.23;67.55;99396.25;5046338;28;20037;-75
2021/08/16 02:03:11;;;;;;;13.23;7.45;;;;;;;19.28;67.65;99397.38;5046352;28;20148;-75
2021/08/16 02:05:38;;;;;;;10.77;7.72;;;;;;;19.34;67.26;99395.78;5046471;28;20049;-72
2021/08/16 02:08:05;;;;;;;11.75;7.38;;;;;;;19.40;67.19;99400.38;5046463;28;20045;-74
2021/08/16 02:10:32;;;;;;;11.13;6.80;;;;;;;19.48;66.80;99400.25;5047311;28;20056;-76
2021/08/16 02:12:59;;;;;;;11.73;8.15;;;;;;;19.58;66.62;99399.94;5047125;28;20045;-77
2021/08/16 02:15:26;;;;;;;9.00;6.72;;;;;;;19.64;66.49;99399.19;5047242;28;20136;-74
2021/08/16 02:17:53;;;;;;;9.23;7.03;;;;;;;19.71;66.07;99396.56;5046895;28;20056;-77
2021/08/16 02:20:21;;;;;;;11.80;6.70;;;;;;;19.76;65.93;99386.13;5047867;28;20049;-74
2021/08/16 02:22:48;;;;;;;10.75;7.65;;;;;;;19.79;66.05;99388.44;5047676;28;20469;-75
2021/08/16 02:25:15;;;;;;;8.30;6.55;;;;;;;19.80;65.75;99383.91;5047141;28;20049;-74
2021/08/16 02:27:46;;;;;;;13.45;7.68;;;;;;;19.82;65.59;99379.16;5044949;28;20044;-77
2021/08/16 02:30:15;;;;;;;12.35;7.97;;;;;;;19.77;65.76;99371.72;5045952;28;20072;-75
2021/08/16 02:32:43;;;;;;;13.18;7.78;;;;;;;19.78;66.00;99372.53;5045771;28;20052;-74
2021/08/16 02:35:11;;;;;;;11.27;7.38;;;;;;;19.78;65.81;99369.88;5046320;28;20108;-76
2021/08/16 02:37:40;;;;;;;10.43;7.28;;;;;;;19.75;65.84;99371.06;5045879;28;20057;-73
2021/08/16 02:40:09;;;;;;;11.60;8.13;;;;;;;19.74;66.02;99372.09;5046515;28;20049;-73
2021/08/16 02:42:36;;;;;;;15.18;9.77;;;;;;;19.77;65.82;99371.72;5045753;28;20044;-75
2021/08/16 02:45:04;;;;;;;12.10;9.13;;;;;;;19.79;65.96;99363.47;5048081;28;20453;-74
2021/08/16 02:47:31;;;;;;;12.75;8.07;;;;;;;19.82;65.88;99371.13;5047229;28;20183;-74
2021/08/16 02:49:58;;;;;;;13.00;7.82;;;;;;;19.90;65.62;99364.78;5046510;28;20049;-73
2021/08/16 02:52:25;;;;;;;12.45;8.98;;;;;;;19.99;65.13;99371.69;5049844;28;20056;-74
2021/08/16 02:54:53;;;;;;;11.18;8.40;;;;;;;20.05;65.20;99357.50;5056087;28;20054;-74
2021/08/16 02:57:21;;;;;;;16.48;9.00;;;;;;;20.09;64.91;99355.28;5050247;28;20629;-74
2021/08/16 02:59:49;;;;;;;15.13;9.35;;;;;;;20.11;65.03;99353.22;5047681;28;20045;-75
2021/08/16 03:02:16;;;;;;;10.88;8.77;;;;;;;20.13;65.07;99349.34;5046342;28;20049;-75
2021/08/16 03:04:43;;;;;;;12.57;8.90;;;;;;;20.17;65.11;99355.13;5049325;28;20060;-76
2021/08/16 03:07:10;;;;;;;13.23;9.48;;;;;;;20.21;64.93;99351.03;5050152;28;20052;-79
2021/08/16 03:09:37;;;;;;;12.40;9.18;;;;;;;20.29;64.81;99353.53;5056829;28;20128;-78
2021/08/16 03:12:06;;;;;;;13.57;9.52;;;;;;;20.38;64.65;99349.69;5053464;28;20096;-75
2021/08/16 03:14:33;;;;;;;12.30;8.77;;;;;;;20.44;64.58;99345.41;5046388;28;20045;-75
2021/08/16 03:17:01;;;;;;;12.85;10.02;;;;;;;20.49;64.36;99347.47;5047089;28;20071;-75
2021/08/16 03:19:28;;;;;;;13.70;10.65;;;;;;;20.53;64.32;99352.25;5047730;28;20045;-74
2021/08/16 03:21:55;;;;;;;17.05;11.15;;;;;;;20.55;64.35;99357.44;5046189;28;20045;-74
2021/08/16 03:24:21;;;;;;;11.68;9.63;;;;;;;20.61;64.74;99352.09;5045460;28;20107;-74
2021/08/16 03:26:48;;;;;;;12.77;9.70;;;;;;;20.72;64.20;99357.94;5045997;28;20049;-72
2021/08/16 03:29:17;;;;;;;13.20;10.55;;;;;;;20.81;64.28;99364.78;5044006;28;20556;-75
2021/08/16 03:31:44;;;;;;;11.57;10.07;;;;;;;20.89;64.05;99369.19;5046398;28;20561;-74
2021/08/16 03:34:11;;;;;;;13.00;11.35;;;;;;;20.95;63.84;99363.81;5051045;28;20053;-76
2021/08/16 03:36:38;;;;;;;13.75;11.05;;;;;;;21.01;63.62;99356.81;5052698;28;20049;-73
2021/08/16 03:39:05;;;;;;;15.95;12.15;;;;;;;21.02;64.17;99358.50;5055002;28;20037;-76
2021/08/16 03:41:32;;;;;;;14.43;11.45;;;;;;;21.01;64.93;99354.13;5052996;28;20148;-74
2021/08/16 03:43:59;;;;;;;15.68;12.32;;;;;;;21.00;64.81;99349.81;5052053;28;20052;-75
2021/08/16 03:46:27;;;;;;;15.95;12.43;;;;;;;21.01;65.01;99340.72;5050910;28;20053;-72
2021/08/16 03:48:54;;;;;;;15.90;12.25;;;;;;;21.01;65.26;99324.59;5052122;28;20120;-74
2021/08/16 03:51:21;;;;;;;17.13;13.15;;;;;;;20.99;65.76;99322.16;5057241;28;20056;-75
2021/08/16 03:53:48;;;;;;;16.58;13.23;;;;;;;20.94;66.17;99346.06;5052408;28;20060;-75
2021/08/16 03:56:15;;;;;;;18.20;12.82;;;;;;;20.97;66.19;99345.66;5054133;28;20044;-72
2021/08/16 03:58:42;;;;;;;18.17;12.93;;;;;;;21.04;65.97;99339.50;5048734;28;20448;-73
2021/08/16 04:01:10;;;;;;;17.10;14.65;;;;;;;21.08;66.31;99335.38;5051531;28;20515;-73
2021/08/16 04:03:41;;;;;;;19.55;14.10;;;;;;;21.12;66.10;99353.56;5061904;28;20076;-73
2021/08/16 04:06:08;;;;;;;18.55;13.73;;;;;;;21.17;66.32;99353.78;5055765;28;20052;-76
2021/08/16 04:08:38;;;;;;;20.38;16.45;;;;;;;21.20;66.30;99349.88;5052030;28;20403;-74
2021/08/16 04:11:05;;;;;;;20.52;16.10;;;;;;;21.26;66.31;99356.28;5052399;28;20049;-75
2021/08/16 04:13:32;;;;;;;21.33;14.55;;;;;;;21.32;66.08;99366.19;5055329;28;20270;-75
2021/08/16 04:15:59;;;;;;;24.23;15.90;;;;;;;21.36;66.34;99367.47;5055137;28;20052;-76
2021/08/16 04:18:26;;;;;;;19.92;14.77;;;;;;;21.41;65.92;99362.31;5053851;28;20045;-75
2021/08/16 04:20:54;;;;;;;19.77;15.60;;;;;;;21.42;66.29;99345.16;5053776;28;20041;-76
2021/08/16 04:23:21;;;;;;;24.08;19.08;;;;;;;21.41;66.53;99340.84;5053637;28;20059;-77
2021/08/16 04:25:48;;;;;;;19.40;16.27;;;;;;;21.43;66.35;99345.97;5057962;28;20041;-76
2021/08/16 04:28:15;;;;;;;19.38;15.50;;;;;;;21.47;66.08;99349.97;5053038;28;20095;-75
2021/08/16 04:30:42;;;;;;;18.80;15.27;;;;;;;21.49;66.00;99353.28;5049785;28;20061;-75
2021/08/16 04:33:09;;;;;;;18.60;16.35;;;;;;;21.53;65.75;99354.50;5049549;28;20049;-74
2021/08/16 04:35:36;;;;;;;21.83;16.80;;;;;;;21.52;66.00;99347.50;5054113;28;20041;-76
2021/08/16 04:38:04;;;;;;;19.08;16.33;;;;;;;21.52;66.16;99344.81;5055865;28;20079;-73
2021/08/16 04:40:31;;;;;;;19.42;15.98;;;;;;;21.49;65.86;99342.53;5057462;28;20053;-73
2021/08/16 04:42:58;;;;;;;22.25;16.08;;;;;;;21.46;66.39;99333.00;5060463;28;20101;-74
2021/08/16 04:45:25;;;;;;;19.42;15.95;;;;;;;21.45;66.39;99341.25;5062536;28;20052;-74
2021/08/16 04:47:52;;;;;;;17.92;15.68;;;;;;;21.44;66.13;99351.16;5064140;28;20066;-71
2021/08/16 04:50:19;;;;;;;20.83;16.65;;;;;;;21.44;66.04;99343.09;5055466;28;20534;-75
2021/08/16 04:52:47;;;;;;;20.67;16.40;;;;;;;21.44;66.37;99344.97;5052666;28;20052;-71
2021/08/16 04:55:15;;;;;;;21.38;16.88;;;;;;;21.43;66.41;99336.09;5055927;28;20056;-70
2021/08/16 04:57:42;;;;;;;21.15;17.75;;;;;;;21.45;66.45;99333.19;5055746;28;20052;-73
2021/08/16 05:00:11;;;;;;;19.90;17.48;;;;;;;21.46;66.12;99324.94;5049910;28;20041;-73
2021/08/16 05:02:38;;;;;;;20.58;17.25;;;;;;;21.48;66.30;99322.91;5051730;28;20055;-70
2021/08/16 05:05:09;;;;;;;23.70;18.95;;;;;;;21.54;66.35;99323.94;5056559;28;20048;-73
2021/08/16 05:07:36;;;;;;;19.38;15.43;;;;;;;21.63;65.97;99311.13;5055183;28;20350;-72
2021/08/16 05:10:05;;;;;;;17.63;15.07;;;;;;;21.73;65.77;99314.22;5054427;28;20670;-75
2021/08/16 05:12:35;;;;;;;24.40;15.15;;;;;;;21.86;65.55;99306.16;5051274;28;20561;-74
2021/08/16 05:15:02;;;;;;;18.02;15.75;;;;;;;21.99;65.18;99309.88;5064354;28;20041;-76
2021/08/16 05:17:29;;;;;;;18.63;15.55;;;;;;;22.09;65.03;99310.25;5061362;28;20043;-78
2021/08/16 05:19:56;;;;;;;17.98;14.73;;;;;;;22.14;64.90;99303.19;5058207;28;20055;-77
2021/08/16 05:22:23;;;;;;;16.52;13.73;;;;;;;22.17;64.58;99311.91;5055531;28;20045;-76
2021/08/16 05:24:50;;;;;;;14.88;12.05;;;;;;;22.16;64.86;99305.69;5055373;28;20059;-74
2021/08/16 05:27:17;;;;;;;17.05;12.00;;;;;;;22.15;64.71;99307.56;5058580;28;20045;-75
2021/08/16 05:29:45;;;;;;;14.23;11.57;;;;;;;22.19;64.60;99313.34;5054727;28;20124;-75
2021/08/16 05:32:12;;;;;;;14.20;11.98;;;;;;;22.22;64.31;99304.88;5059182;28;20055;-75
2021/08/16 05:34:39;;;;;;;14.02;11.25;;;;;;;22.27;64.30;99299.72;5051476;28;20517;-72
2021/08/16 05:37:06;;;;;;;15.27;12.82;;;;;;;22.28;64.44;99304.03;5052275;28;20053;-71
2021/08/16 05:39:33;;;;;;;16.70;12.10;;;;;;;22.30;64.14;99291.19;5051456;28;20066;-74
2021/08/16 05:42:02;;;;;;;14.13;12.73;;;;;;;22.35;64.23;99293.28;5050671;28;20040;-73
2021/08/16 05:44:29;;;;;;;13.43;10.35;;;;;;;22.44;63.85;99299.25;5054515;28;20059;-73
2021/08/16 05:47:01;;;;;;;14.80;11.50;;;;;;;22.56;63.82;99296.72;5057136;28;20037;-75
2021/08/16 05:49:28;;;;;;;12.98;11.57;;;;;;;22.64;63.39;99296.47;5054545;28;20130;-77
2021/08/16 05:51:55;;;;;;;12.15;10.50;;;;;;;22.73;63.47;99291.69;5051464;28;20045;-72
2021/08/16 05:54:22;;;;;;;13.65;10.43;;;;;;;22.88;63.00;99292.22;5051672;28;20060;-73
2021/08/16 05:56:49;;;;;;;12.43;9.55;;;;;;;23.08;62.66;99292.97;5050409;28;20053;-72
2021/08/16 05:59:16;;;;;;;11.27;9.60;;;;;;;23.23;62.13;99283.78;5046119;28;20049;-72
2021/08/16 06:01:43;;;;;;;10.90;9.77;;;;;;;23.36;62.03;99282.84;5056935;28;20033;-71
2021/08/16 06:04:12;;;;;;;12.00;10.40;;;;;;;23.51;61.45;99274.44;5055217;28;20060;-74
2021/08/16 06:06:39;;;;;;;11.52;8.40;;;;;;;23.58;61.07;99264.44;5032672;28;20108;-74
2021/08/16 06:09:06;;;;;;;12.80;10.25;;;;;;;23.63;61.18;99270.00;5050450;28;20044;-75
2021/08/16 06:11:33;;;;;;;12.02;9.50;;;;;;;23.69;61.27;99271.78;5034097;28;20220;-73
2021/08/16 06:14:00;;;;;;;11.45;8.85;;;;;;;23.79;61.29;99276.69;5033282;28;20049;-74
2021/08/16 06:16:27;;;;;;;11.88;9.52;;;;;;;23.89;60.71;99277.03;5032534;28;20132;-74
2021/08/16 06:18:54;;;;;;;13.43;9.45;;;;;;;23.99;60.20;99276.53;5033247;28;20045;-74
2021/08/16 06:21:22;;;;;;;11.13;9.07;;;;;;;24.09;60.07;99276.81;5027546;28;20046;-73
2021/08/16 06:23:49;;;;;;;12.30;9.88;;;;;;;24.24;59.64;99274.59;5029282;28;20053;-74
2021/08/16 06:26:17;;;;;;;10.73;8.57;;;;;;;24.36;59.61;99268.44;5029205;28;20060;-75
2021/08/16 06:28:44;;;;;;;11.23;8.90;;;;;;;24.42;59.32;99256.75;5040284;28;20038;-74
2021/08/16 06:31:11;;;;;;;11.82;8.63;;;;;;;24.51;59.07;99262.69;5040958;28;20046;-75
2021/08/16 06:33:40;;;;;;;9.93;7.93;;;;;;;24.59;58.84;99270.47;5037772;28;20036;-76
2021/08/16 06:36:07;;;;;;;11.07;8.27;;;;;;;24.68;58.36;99268.28;5035483;28;20091;-77
2021/08/16 06:38:36;;;;;;;11.77;8.88;;;;;;;24.86;57.97;99264.75;5038033;28;20049;-78
2021/08/16 06:41:03;;;;;;;10.57;8.38;;;;;;;25.07;57.05;99268.81;5032924;28;20087;-74
2021/08/16 06:43:33;;;;;;;8.70;7.10;;;;;;;25.29;56.64;99263.72;5027740;28;20050;-72
2021/08/16 06:46:00;;;;;;;10.07;7.78;;;;;;;25.53;55.71;99259.16;5029591;28;20055;-76
2021/08/16 06:48:27;;;;;;;9.55;6.53;;;;;;;25.85;54.78;99250.72;5029244;28;20049;-73
2021/08/16 06:50:53;;;;;;;9.32;6.88;;;;;;;26.19;53.65;99259.06;5028630;28;20083;-73
2021/08/16 06:53:20;;;;;;;11.20;7.18;;;;;;;26.49;52.89;99256.19;5033180;28;20049;-74
2021/08/16 06:55:50;;;;;;;8.68;5.90;;;;;;;26.75;51.85;99243.97;5032079;28;20041;-76
2021/08/16 06:58:17;;;;;;;10.35;6.80;;;;;;;26.79;51.69;99249.75;5026542;28;20099;-74
2021/08/16 07:00:45;;;;;;;7.75;6.07;;;;;;;26.83;51.40;99251.72;5029600;28;20060;-72
2021/08/16 07:03:12;;;;;;;8.27;6.13;;;;;;;26.91;51.31;99247.00;5030183;28;20056;-76
2021/08/16 07:05:43;;;;;;;8.95;5.57;;;;;;;26.98;50.87;99250.38;5027360;28;20049;-77
2021/08/16 07:08:10;;;;;;;7.03;4.88;;;;;;;26.87;50.82;99249.34;5031266;28;20045;-71
2021/08/16 07:10:37;;;;;;;6.70;5.63;;;;;;;26.78;50.88;99253.53;5032673;28;20045;-76
2021/08/16 07:13:06;;;;;;;14.85;6.55;;;;;;;26.82;51.28;99249.25;5033004;28;20053;-71
2021/08/16 07:15:33;;;;;;;8.68;5.60;;;;;;;26.93;50.68;99242.97;5036275;28;20140;-74
2021/08/16 07:17:59;;;;;;;7.57;5.57;;;;;;;27.03;50.49;99235.03;5032859;28;20046;-74
2021/08/16 07:20:28;;;;;;;8.20;5.25;;;;;;;27.13;50.47;99231.66;5029769;28;20049;-73
2021/08/16 07:22:55;;;;;;;9.73;5.68;;;;;;;27.22;50.01;99232.88;5030227;28;20617;-73
2021/08/16 07:25:22;;;;;;;8.32;5.90;;;;;;;27.38;49.98;99220.44;5030493;28;20054;-72
2021/08/16 07:27:49;;;;;;;7.15;5.40;;;;;;;27.55;49.60;99230.44;5029728;28;20045;-76
2021/08/16 07:30:17;;;;;;;7.10;5.47;;;;;;;27.86;49.05;99231.75;5031639;28;20057;-73
2021/08/16 07:32:44;;;;;;;7.13;5.35;;;;;;;28.17;48.31;99229.47;5033290;28;20049;-72
2021/08/16 07:35:11;;;;;;;7.47;5.68;;;;;;;28.39;47.69;99241.13;5030093;28;20045;-71
2021/08/16 07:37:38;;;;;;;7.68;5.50;;;;;;;28.68;47.49;99243.66;5030526;28;20104;-71
2021/08/16 07:40:07;;;;;;;7.50;5.50;;;;;;;29.15;46.08;99247.69;5030388;28;20052;-70
2021/08/16 07:42:33;;;;;;;5.53;3.95;;;;;;;29.61;44.87;99242.63;5030425;28;20064;-71
2021/08/16 07:45:00;;;;;;;6.75;4.65;;;;;;;29.91;44.00;99242.03;5035314;28;20033;-71
2021/08/16 07:47:29;;;;;;;8.65;6.05;;;;;;;29.82;43.73;99254.50;5029311;28;20052;-70
2021/08/16 07:49:56;;;;;;;7.38;5.53;;;;;;;29.64;43.75;99268.47;5030331;28;20048;-71
2021/08/16 07:52:22;;;;;;;6.22;4.97;;;;;;;29.51;44.54;99277.91;5038640;28;20124;-71
2021/08/16 07:54:49;;;;;;;7.63;6.25;;;;;;;29.25;44.90;99298.66;5032520;28;20092;-72
2021/08/16 07:57:16;;;;;;;7.30;5.10;;;;;;;29.05;46.00;99313.66;5029948;28;20049;-71
2021/08/16 07:59:43;;;;;;;8.52;6.07;;;;;;;28.80;46.05;99308.75;5028242;28;20049;-77
2021/08/16 08:02:10;;;;;;;8.38;6.10;;;;;;;28.60;46.57;99306.63;5034219;28;20080;-73
2021/08/16 08:04:39;;;;;;;10.57;5.55;;;;;;;28.64;46.58;99290.63;5028708;28;20064;-72
2021/08/16 08:07:06;;;;;;;7.63;5.35;;;;;;;28.70;45.82;99284.16;5027066;28;20049;-72
2021/08/16 08:09:33;;;;;;;7.07;4.55;;;;;;;28.67;45.81;99274.66;5028494;28;20046;-73
2021/08/16 08:12:00;;;;;;;6.88;5.07;;;;;;;28.74;46.05;99279.88;5031523;28;20050;-75
2021/08/16 08:14:27;;;;;;;5.80;4.50;;;;;;;29.05;45.62;99291.91;5032101;28;20508;-72
2021/08/16 08:16:54;;;;;;;9.63;6.07;;;;;;;29.36;45.38;99289.50;5032279;28;20128;-72
2021/08/16 08:19:21;;;;;;;15.35;7.82;;;;;;;29.57;45.11;99292.38;5029665;28;20061;-72
2021/08/16 08:21:49;;;;;;;8.18;6.10;;;;;;;29.54;44.92;99297.25;5031029;28;20111;-73
2021/08/16 08:24:16;;;;;;;7.93;6.38;;;;;;;29.44;45.03;99278.16;5032281;28;20050;-72
2021/08/16 08:26:43;;;;;;;13.48;7.07;;;;;;;29.33;45.09;99273.69;5031408;28;20051;-72
2021/08/16 08:29:10;;;;;;;10.35;6.78;;;;;;;29.20;46.68;99272.22;5024748;28;20555;-72
2021/08/16 08:31:41;;;;;;;9.20;5.25;;;;;;;29.02;46.09;99264.41;5026501;28;20042;-72
2021/08/16 08:34:08;;;;;;;10.98;6.43;;;;;;;28.94;46.12;99273.84;5025730;28;20077;-70
2021/08/16 08:36:35;;;;;;;8.00;5.28;;;;;;;28.85;46.11;99267.22;5026981;28;20489;-74
2021/08/16 08:39:04;;;;;;;8.43;6.38;;;;;;;28.91;46.16;99258.84;5033401;28;20052;-74
2021/08/16 08:41:34;;;;;;;8.20;5.90;;;;;;;28.95;45.66;99256.44;5035837;28;20049;-73
2021/08/16 08:44:04;;;;;;;9.65;5.50;;;;;;;28.93;46.03;99250.44;5032953;28;20072;-73
2021/08/16 08:46:33;;;;;;;8.40;5.45;;;;;;;29.24;45.76;99250.75;5032377;28;20064;-73
2021/08/16 08:49:02;;;;;;;7.63;5.82;;;;;;;29.39;45.74;99255.50;5028054;28;20704;-74
2021/08/16 08:51:29;;;;;;;7.53;5.43;;;;;;;29.71;45.37;99260.91;5029892;28;20049;-73
2021/08/16 08:53:56;;;;;;;7.75;5.50;;;;;;;30.09;44.39;99254.38;5033403;28;20056;-73
2021/08/16 08:56:24;;;;;;;7.10;5.95;;;;;;;30.58;42.80;99238.81;5030113;28;20045;-75
2021/08/16 08:58:51;;;;;;;9.05;5.35;;;;;;;30.98;41.85;99243.56;5030572;28;20049;-75
2021/08/16 09:01:18;;;;;;;7.28;5.55;;;;;;;31.39;40.58;99238.13;5034071;28;20052;-73
2021/08/16 09:03:49;;;;;;;7.05;5.43;;;;;;;31.78;39.65;99223.06;5033265;28;20046;-75
2021/08/16 09:06:27;;;;;;;8.35;6.43;;;;;;;32.03;39.00;99227.66;5034624;28;20548;-72
2021/08/16 09:08:54;;;;;;;5.22;4.65;;;;;;;32.20;38.70;99239.09;5029272;28;20046;-73
2021/08/16 09:11:20;;;;;;;6.43;4.82;;;;;;;32.18;37.93;99229.56;5028966;28;20534;-72
2021/08/16 09:13:55;;;;;;;9.93;6.32;;;;;;;32.15;38.46;99239.13;5027876;28;20053;-72
2021/08/16 09:16:22;;;;;;;10.57;6.00;;;;;;;31.98;38.30;99241.31;5027309;28;20053;-70
2021/08/16 09:18:50;;;;;;;5.45;4.88;;;;;;;31.90;38.34;99233.72;5026789;28;20045;-74
2021/08/16 09:21:25;;;;;;;6.88;4.70;;;;;;;32.02;38.28;99228.75;5029446;28;20046;-74
2021/08/16 09:23:55;;;;;;;8.48;5.88;;;;;;;32.06;38.06;99231.78;5029016;28;20045;-75
2021/08/16 09:26:26;;;;;;;7.53;4.97;;;;;;;32.20;38.35;99230.09;5027857;28;20092;-71
2021/08/16 09:28:55;;;;;;;7.00;5.30;;;;;;;32.36;38.33;99239.06;5027860;28;20053;-73
2021/08/16 09:31:24;;;;;;;5.35;4.13;;;;;;;32.60;38.07;99227.47;5026830;28;20053;-73
2021/08/16 09:33:56;;;;;;;15.68;4.53;;;;;;;32.84;37.35;99231.13;5008415;28;20049;-73
2021/08/16 09:36:34;;;;;;;7.10;4.90;;;;;;;33.16;36.73;99238.06;5026866;28;20048;-73
2021/08/16 09:39:01;;;;;;;5.65;4.03;;;;;;;33.64;35.52;99243.66;5028950;28;20045;-71
2021/08/16 09:41:28;;;;;;;6.32;4.38;;;;;;;33.88;35.02;99256.59;5030190;28;20056;-73
2021/08/16 09:44:08;;;;;;;5.22;4.43;;;;;;;33.95;34.78;99251.59;5030347;28;20214;-73
2021/08/16 09:46:35;;;;;;;8.68;4.32;;;;;;;33.78;34.94;99271.22;5029111;28;20053;-73
2021/08/16 09:49:03;;;;;;;5.82;3.95;;;;;;;33.27;35.81;99302.53;5029973;28;20119;-73
2021/08/16 09:51:31;;;;;;;7.45;4.90;;;;;;;32.61;36.82;99313.84;5031279;28;20056;-71
2021/08/16 09:53:59;;;;;;;6.70;4.65;;;;;;;31.82;37.97;99330.66;5031595;28;20416;-73
2021/08/16 09:56:27;;;;;;;7.35;4.88;;;;;;;31.02;38.55;99331.09;5029314;28;20301;-73
2021/08/16 09:58:55;;;;;;;7.72;5.00;;;;;;;30.43;39.32;99326.75;5033096;28;20045;-70
2021/08/16 10:01:24;;;;;;;7.78;4.80;;;;;;;30.00;40.73;99328.66;5034059;28;20053;-70
2021/08/16 10:03:51;;;;;;;8.15;5.10;;;;;;;29.27;43.42;99310.09;5028982;28;20053;-69
2021/08/16 10:06:19;;;;;;;8.18;4.88;;;;;;;28.70;44.38;99295.03;5030531;28;20049;-68
2021/08/16 10:08:50;;;;;;;8.93;5.55;;;;;;;28.51;45.93;99276.31;5027147;28;20096;-71
2021/08/16 10:11:18;;;;;;;7.35;4.95;;;;;;;28.48;46.46;99257.00;5023649;28;20049;-69
2021/08/16 10:13:49;;;;;;;7.32;5.15;;;;;;;28.48;46.44;99225.22;5027399;28;20155;-72
2021/08/16 10:16:21;;;;;;;9.10;5.22;;;;;;;28.58;45.84;99210.97;5028177;28;20053;-69
2021/08/16 10:18:53;;;;;;;7.13;5.53;;;;;;;29.10;46.18;99225.84;5029970;28;20045;-71
2021/08/16 10:21:22;;;;;;;9.25;6.03;;;;;;;29.63;46.16;99240.47;5027109;28;20064;-69
2021/08/16 10:23:51;;;;;;;9.88;6.05;;;;;;;30.02;46.07;99242.09;5028227;28;20160;-72
2021/08/16 10:26:28;;;;;;;7.82;5.55;;;;;;;30.43;46.02;99245.00;5031335;28;20056;-70
2021/08/16 10:28:57;;;;;;;8.55;5.78;;;;;;;31.01;43.82;99242.22;5027595;28;20339;-71
2021/08/16 10:31:31;;;;;;;6.55;5.82;;;;;;;31.56;43.24;99242.50;5026647;28;20073;-72
2021/08/16 10:34:00;;;;;;;7.82;6.22;;;;;;;31.80;42.40;99245.47;5021609;28;20081;-71
2021/08/16 10:36:28;;;;;;;8.48;5.93;;;;;;;31.85;41.75;99242.72;4986022;28;20048;-71
2021/08/16 10:38:59;;;;;;;8.30;6.35;;;;;;;31.97;41.99;99240.50;5019879;28;20041;-69
2021/08/16 10:41:28;;;;;;;8.18;5.05;;;;;;;31.87;41.40;99239.72;5020176;28;20049;-70
2021/08/16 10:43:56;;;;;;;9.93;6.03;;;;;;;31.80;42.37;99240.84;5021223;28;20049;-70
2021/08/16 10:46:24;;;;;;;7.22;6.25;;;;;;;31.79;42.24;99243.84;5019647;28;20060;-70
2021/08/16 10:49:04;;;;;;;8.35;6.43;;;;;;;31.72;41.77;99237.84;5021444;28;20046;-70
2021/08/16 10:51:43;;;;;;;12.07;6.20;;;;;;;31.47;43.30;99235.94;5020613;28;20052;-71
2021/08/16 10:54:21;;;;;;;8.07;6.03;;;;;;;31.50;43.20;99225.31;5020366;28;20519;-71
2021/08/16 10:56:51;;;;;;;8.50;7.03;;;;;;;31.58;42.35;99230.19;5021670;28;20045;-70
2021/08/16 10:59:20;;;;;;;7.32;5.95;;;;;;;31.51;41.33;99221.50;5016210;28;20052;-70
2021/08/16 11:01:48;;;;;;;7.75;5.82;;;;;;;31.63;40.74;99222.00;5019484;28;20136;-71
2021/08/16 11:04:26;;;;;;;10.20;7.93;;;;;;;31.57;40.23;99220.41;5020278;28;20046;-68
2021/08/16 11:06:54;;;;;;;9.90;6.22;;;;;;;31.57;40.08;99225.03;5018795;28;20060;-70
2021/08/16 11:09:25;;;;;;;8.05;6.32;;;;;;;31.62;40.68;99211.38;5020016;28;20041;-70
2021/08/16 11:11:54;;;;;;;13.98;6.70;;;;;;;31.76;41.03;99201.50;5020475;28;20045;-70
2021/08/16 11:14:24;;;;;;;9.93;6.47;;;;;;;31.83;41.19;99191.13;5020952;28;20050;-70
2021/08/16 11:16:53;;;;;;;7.95;6.53;;;;;;;31.87;40.70;99191.38;5020572;28;20057;-71
2021/08/16 11:19:22;;;;;;;9.57;7.78;;;;;;;31.88;41.28;99192.22;5020350;28;20596;-71
2021/08/16 11:21:57;;;;;;;12.77;7.28;;;;;;;31.91;40.89;99189.75;5019669;28;20049;-72
2021/08/16 11:24:29;;;;;;;10.02;6.75;;;;;;;32.04;40.19;99184.81;5020190;28;20054;-70
2021/08/16 11:26:56;;;;;;;9.57;6.78;;;;;;;32.12;39.66;99190.50;5021368;28;20053;-71
2021/08/16 11:29:25;;;;;;;11.32;7.40;;;;;;;32.09;39.98;99182.88;5020628;28;20115;-71